createdAt,value
2023-02-28T00:00:44.030Z,-1.80
2023-02-28T00:03:15.984Z,-1.80
2023-02-28T00:05:47.809Z,-1.80
2023-02-28T00:08:19.516Z,-1.80
2023-02-28T00:10:51.244Z,-1.80
2023-02-28T00:13:23.070Z,-1.80
2023-02-28T00:16:06.848Z,-1.80
2023-02-28T00:18:39.092Z,-1.80
2023-02-28T00:21:10.853Z,-1.80
2023-02-28T00:23:42.699Z,-1.80
2023-02-28T00:26:14.628Z,-1.80
2023-02-28T00:28:50.048Z,-1.80
2023-02-28T00:31:21.726Z,-1.80
2023-02-28T00:33:53.711Z,-1.80
2023-02-28T00:36:26.362Z,-1.90
2023-02-28T00:38:58.080Z,-1.90
2023-02-28T00:41:32.693Z,-1.90
2023-02-28T00:44:04.455Z,-1.90
2023-02-28T00:46:37.618Z,-2.00
2023-02-28T00:49:09.383Z,-2.00
2023-02-28T00:51:41.191Z,-1.90
2023-02-28T00:54:13.148Z,-2.00
2023-02-28T00:56:46.914Z,-2.10
2023-02-28T00:59:19.037Z,-2.10
2023-02-28T01:01:50.786Z,-2.00
2023-02-28T01:04:22.567Z,-2.00
2023-02-28T01:06:54.415Z,-2.00
2023-02-28T01:09:26.159Z,-2.00
2023-02-28T01:11:57.927Z,-2.00
2023-02-28T01:14:29.886Z,-2.10
2023-02-28T01:17:02.599Z,-2.10
2023-02-28T01:19:34.755Z,-2.10
2023-02-28T01:22:07.610Z,-2.10
2023-02-28T01:24:40.243Z,-2.10
2023-02-28T01:27:11.968Z,-2.10
2023-02-28T01:29:43.674Z,-2.10
2023-02-28T01:32:15.454Z,-2.00
2023-02-28T01:34:47.195Z,-2.10
2023-02-28T01:37:18.925Z,-2.10
2023-02-28T01:39:50.666Z,-2.10
2023-02-28T01:42:22.404Z,-2.10
2023-02-28T01:45:05.276Z,-2.20
2023-02-28T01:47:41.003Z,-2.20
2023-02-28T01:50:20.059Z,-2.10
2023-02-28T01:52:53.973Z,-2.20
2023-02-28T01:55:29.630Z,-2.20
2023-02-28T01:58:06.032Z,-2.20
2023-02-28T02:00:39.864Z,-2.20
2023-02-28T02:03:16.948Z,-2.10
2023-02-28T02:05:49.259Z,-2.20
2023-02-28T02:08:24.174Z,-2.20
2023-02-28T02:11:00.040Z,-2.20
2023-02-28T02:14:31.771Z,-2.20
2023-02-28T02:17:22.695Z,-2.20
2023-02-28T02:20:09.146Z,-2.20
2023-02-28T02:22:55.469Z,-2.20
2023-02-28T02:25:45.509Z,-2.20
2023-02-28T02:29:13.695Z,-2.30
2023-02-28T02:32:14.796Z,-2.20
2023-02-28T02:35:06.390Z,-2.20
2023-02-28T02:37:49.364Z,-2.20
2023-02-28T02:40:28.532Z,-2.20
2023-02-28T02:43:11.766Z,-2.20
2023-02-28T02:45:55.013Z,-2.20
2023-02-28T02:48:31.729Z,-2.20
2023-02-28T02:51:12.905Z,-2.20
2023-02-28T02:54:03.107Z,-2.20
2023-02-28T02:56:36.970Z,-2.20
2023-02-28T02:59:12.119Z,-2.20
2023-02-28T03:01:44.204Z,-2.20
2023-02-28T03:04:20.173Z,-2.30
2023-02-28T03:06:55.765Z,-2.20
2023-02-28T03:09:27.746Z,-2.20
2023-02-28T03:11:59.621Z,-2.30
2023-02-28T03:14:42.070Z,-2.30
2023-02-28T03:17:14.345Z,-2.30
2023-02-28T03:19:56.539Z,-2.30
2023-02-28T03:22:50.481Z,-2.30
2023-02-28T03:25:34.731Z,-2.30
2023-02-28T03:28:10.088Z,-2.30
2023-02-28T03:30:59.122Z,-2.30
2023-02-28T03:33:39.057Z,-2.30
2023-02-28T03:36:18.440Z,-2.40
2023-02-28T03:38:56.724Z,-2.30
2023-02-28T03:41:39.897Z,-2.40
2023-02-28T03:44:18.965Z,-2.40
2023-02-28T03:47:03.365Z,-2.40
2023-02-28T03:49:44.547Z,-2.40
2023-02-28T03:52:18.363Z,-2.40
2023-02-28T03:54:55.336Z,-2.40
2023-02-28T03:57:49.125Z,-2.40
2023-02-28T04:00:36.354Z,-2.40
2023-02-28T04:03:08.147Z,-2.40
2023-02-28T04:05:53.168Z,-2.40
2023-02-28T04:08:24.991Z,-2.40
2023-02-28T04:11:12.488Z,-2.40
2023-02-28T04:13:45.595Z,-2.40
2023-02-28T04:16:33.479Z,-2.40
2023-02-28T04:19:08.118Z,-2.40
2023-02-28T04:21:42.388Z,-2.40
2023-02-28T04:24:24.991Z,-2.40
2023-02-28T04:26:58.346Z,-2.40
2023-02-28T04:29:35.540Z,-2.40
2023-02-28T04:32:07.326Z,-2.40
2023-02-28T04:34:39.647Z,-2.40
2023-02-28T04:37:13.726Z,-2.50
2023-02-28T04:39:45.941Z,-2.50
2023-02-28T04:42:17.687Z,-2.40
2023-02-28T04:44:49.405Z,-2.40
2023-02-28T04:47:21.158Z,-2.40
2023-02-28T04:49:52.864Z,-2.40
2023-02-28T04:52:24.583Z,-2.40
2023-02-28T04:54:56.297Z,-2.40
2023-02-28T04:57:28.211Z,-2.40
2023-02-28T04:59:59.978Z,-2.30
2023-02-28T05:02:32.057Z,-2.30
2023-02-28T05:05:04.070Z,-2.30
2023-02-28T05:07:35.891Z,-2.30
2023-02-28T05:10:07.979Z,-2.30
2023-02-28T05:12:39.905Z,-2.30
2023-02-28T05:15:16.284Z,-2.30
2023-02-28T05:17:48.189Z,-2.30
2023-02-28T05:20:20.000Z,-2.30
2023-02-28T05:22:52.804Z,-2.30
2023-02-28T05:25:24.598Z,-2.30
2023-02-28T05:27:56.327Z,-2.30
2023-02-28T05:30:28.158Z,-2.20
2023-02-28T05:33:00.386Z,-2.30
2023-02-28T05:35:32.405Z,-2.30
2023-02-28T05:38:04.148Z,-2.20
2023-02-28T05:40:36.372Z,-2.20
2023-02-28T05:43:12.712Z,-2.10
2023-02-28T05:45:44.584Z,-2.20
2023-02-28T05:48:16.438Z,-2.20
2023-02-28T05:50:48.176Z,-2.20
2023-02-28T05:53:19.893Z,-2.20
2023-02-28T05:55:51.767Z,-2.20
2023-02-28T05:58:24.105Z,-2.20
2023-02-28T06:00:55.981Z,-2.20
2023-02-28T06:03:28.377Z,-2.20
2023-02-28T06:06:00.636Z,-2.10
2023-02-28T06:08:32.348Z,-2.10
2023-02-28T06:11:05.038Z,-2.10
2023-02-28T06:13:37.530Z,-2.10
2023-02-28T06:16:11.967Z,-2.00
2023-02-28T06:18:43.728Z,-2.00
2023-02-28T06:21:15.497Z,-1.90
2023-02-28T06:23:47.362Z,-1.90
2023-02-28T06:26:19.239Z,-1.90
2023-02-28T06:28:51.010Z,-1.80
2023-02-28T06:31:23.212Z,-1.70
2023-02-28T06:33:55.326Z,-1.70
2023-02-28T06:36:27.152Z,-1.60
2023-02-28T06:38:59.031Z,-1.50
2023-02-28T06:41:38.471Z,-1.40
2023-02-28T06:44:18.103Z,-1.30
2023-02-28T06:46:50.396Z,-1.20
2023-02-28T06:49:22.225Z,-1.10
2023-02-28T06:51:56.177Z,-1.10
2023-02-28T06:54:28.241Z,-1.00
2023-02-28T06:57:00.030Z,-0.90
2023-02-28T06:59:31.910Z,-0.80
2023-02-28T07:02:03.755Z,-0.70
2023-02-28T07:04:35.566Z,-0.60
2023-02-28T07:07:07.298Z,-0.50
2023-02-28T07:09:39.008Z,-0.50
2023-02-28T07:12:10.715Z,-0.40
2023-02-28T07:14:42.446Z,-0.40
2023-02-28T07:17:14.314Z,-0.40
2023-02-28T07:19:46.101Z,-0.30
2023-02-28T07:22:17.915Z,-0.30
2023-02-28T07:24:49.636Z,-0.20
2023-02-28T07:27:26.653Z,-0.30
2023-02-28T07:29:58.534Z,0.00
2023-02-28T07:32:30.421Z,0.00
2023-02-28T07:35:02.155Z,0.10
2023-02-28T07:37:37.447Z,0.10
2023-02-28T07:40:14.535Z,0.10
2023-02-28T07:42:46.276Z,0.10
2023-02-28T07:45:22.244Z,0.30
2023-02-28T07:47:54.179Z,0.40
2023-02-28T07:50:27.139Z,0.40
2023-02-28T07:53:01.869Z,0.40
2023-02-28T07:55:33.615Z,0.40
2023-02-28T07:58:05.334Z,0.50
2023-02-28T08:00:37.118Z,0.60
2023-02-28T08:03:13.291Z,0.70
2023-02-28T08:05:45.319Z,0.80
2023-02-28T08:08:17.798Z,0.90
2023-02-28T08:10:49.513Z,0.90
2023-02-28T08:13:21.220Z,1.10
2023-02-28T08:15:52.939Z,1.10
2023-02-28T08:18:25.084Z,1.30
2023-02-28T08:20:57.655Z,1.40
2023-02-28T08:23:29.460Z,1.70
2023-02-28T08:26:01.182Z,1.80
2023-02-28T08:28:33.375Z,1.80
2023-02-28T08:31:10.080Z,1.70
2023-02-28T08:33:43.120Z,1.80
2023-02-28T08:36:16.034Z,1.80
2023-02-28T08:38:47.962Z,2.00
2023-02-28T08:41:19.740Z,2.10
2023-02-28T08:43:51.507Z,2.30
2023-02-28T08:46:24.201Z,2.40
2023-02-28T08:49:00.896Z,2.50
2023-02-28T08:51:33.313Z,2.60
2023-02-28T08:54:05.107Z,2.50
2023-02-28T08:56:37.284Z,2.40
2023-02-28T08:59:10.004Z,2.30
2023-02-28T09:01:42.518Z,2.50
2023-02-28T09:04:17.121Z,2.60
2023-02-28T09:06:51.582Z,2.80
2023-02-28T09:09:23.322Z,2.90
2023-02-28T09:11:57.389Z,3.00
2023-02-28T09:14:29.566Z,3.10
2023-02-28T09:17:01.337Z,2.60
2023-02-28T09:19:33.092Z,3.20
2023-02-28T09:22:04.835Z,3.20
2023-02-28T09:24:38.175Z,3.20
2023-02-28T09:27:10.181Z,3.20
2023-02-28T09:29:42.122Z,3.20
2023-02-28T09:32:14.010Z,3.30
2023-02-28T09:34:45.761Z,3.30
2023-02-28T09:37:17.479Z,3.40
2023-02-28T09:39:49.227Z,3.40
2023-02-28T09:42:34.648Z,3.30
2023-02-28T09:45:33.581Z,3.30
2023-02-28T09:48:16.455Z,3.30
2023-02-28T09:50:52.146Z,3.30
2023-02-28T09:53:34.754Z,3.40
2023-02-28T09:56:11.244Z,3.40
2023-02-28T09:58:50.749Z,3.50
2023-02-28T10:01:35.942Z,3.60
2023-02-28T10:04:45.605Z,3.60
2023-02-28T10:07:37.759Z,3.60
2023-02-28T10:10:46.815Z,3.60
2023-02-28T10:13:35.919Z,3.70
2023-02-28T10:16:22.671Z,3.70
2023-02-28T10:18:59.991Z,3.70
2023-02-28T10:21:40.814Z,3.70
2023-02-28T10:24:40.514Z,3.70
2023-02-28T10:27:21.178Z,3.70
2023-02-28T10:29:55.274Z,3.70
2023-02-28T10:32:36.629Z,3.80
2023-02-28T10:35:20.406Z,3.80
2023-02-28T10:37:59.590Z,3.80
2023-02-28T10:40:36.388Z,3.70
2023-02-28T10:43:13.889Z,3.70
2023-02-28T10:46:10.549Z,3.80
2023-02-28T10:48:58.089Z,3.80
2023-02-28T10:51:38.166Z,3.90
2023-02-28T10:54:30.149Z,3.90
2023-02-28T10:57:22.831Z,3.90
2023-02-28T11:00:16.211Z,4.00
2023-02-28T11:02:48.322Z,3.90
2023-02-28T11:05:31.801Z,4.00
2023-02-28T11:08:18.322Z,4.00
2023-02-28T11:10:59.679Z,4.00
2023-02-28T11:13:35.612Z,4.00
2023-02-28T11:16:10.605Z,4.00
2023-02-28T11:18:49.555Z,4.10
2023-02-28T11:21:34.825Z,4.10
2023-02-28T11:24:41.688Z,4.00
2023-02-28T11:27:32.296Z,4.00
2023-02-28T11:30:05.008Z,4.20
2023-02-28T11:32:36.950Z,4.10
2023-02-28T11:35:11.498Z,4.10
2023-02-28T11:37:43.563Z,4.20
2023-02-28T11:40:17.799Z,4.20
2023-02-28T11:43:02.699Z,4.30
2023-02-28T11:46:18.338Z,4.30
2023-02-28T11:49:07.502Z,4.30
2023-02-28T11:51:50.401Z,4.30
2023-02-28T11:54:53.385Z,4.30
2023-02-28T11:57:56.823Z,4.30
2023-02-28T12:00:44.457Z,4.50
2023-02-28T12:03:47.109Z,4.40
2023-02-28T12:06:58.493Z,4.40
2023-02-28T12:09:48.393Z,4.50
2023-02-28T12:12:39.636Z,4.60
2023-02-28T12:15:21.882Z,4.60
2023-02-28T12:18:29.610Z,4.60
2023-02-28T12:21:12.375Z,4.60
2023-02-28T12:24:08.722Z,4.70
2023-02-28T12:26:46.250Z,4.80
2023-02-28T12:29:33.277Z,4.80
2023-02-28T12:32:15.619Z,4.90
2023-02-28T12:34:52.024Z,4.90
2023-02-28T12:37:32.285Z,4.80
2023-02-28T12:40:15.482Z,4.60
2023-02-28T12:42:52.781Z,4.60
2023-02-28T12:45:28.551Z,4.70
2023-02-28T12:48:09.277Z,4.80
2023-02-28T12:50:42.258Z,4.80
2023-02-28T12:53:25.178Z,4.90
2023-02-28T12:56:15.115Z,4.80
2023-02-28T12:59:08.023Z,4.90
2023-02-28T13:02:10.120Z,4.90
2023-02-28T13:05:15.621Z,5.00
2023-02-28T13:08:19.904Z,5.00
2023-02-28T13:10:55.550Z,5.00
2023-02-28T13:13:31.984Z,5.00
2023-02-28T13:16:11.648Z,5.00
2023-02-28T13:18:46.493Z,5.10
2023-02-28T13:21:28.126Z,5.10
2023-02-28T13:24:05.656Z,5.10
2023-02-28T13:26:37.390Z,5.00
2023-02-28T13:29:11.989Z,5.00
2023-02-28T13:32:09.081Z,5.00
2023-02-28T13:34:53.159Z,5.00
2023-02-28T13:37:30.461Z,5.00
2023-02-28T13:40:37.966Z,5.00
2023-02-28T13:43:10.426Z,5.00
2023-02-28T13:46:13.161Z,5.10
2023-02-28T13:48:44.975Z,5.10
2023-02-28T13:51:47.801Z,5.10
2023-02-28T13:54:40.762Z,5.00
2023-02-28T13:57:31.181Z,5.00
2023-02-28T14:00:33.899Z,5.10
2023-02-28T14:03:17.871Z,5.20
2023-02-28T14:06:27.208Z,5.30
2023-02-28T14:09:17.536Z,5.10
2023-02-28T14:11:49.916Z,4.90
2023-02-28T14:14:37.029Z,4.80
2023-02-28T14:17:17.797Z,4.80
2023-02-28T14:19:51.009Z,4.90
2023-02-28T14:22:43.582Z,4.90
2023-02-28T14:25:37.339Z,5.10
2023-02-28T14:28:28.852Z,5.20
2023-02-28T14:31:10.833Z,5.20
2023-02-28T14:33:48.831Z,5.20
2023-02-28T14:36:36.138Z,5.10
2023-02-28T14:39:15.521Z,5.10
2023-02-28T14:41:47.967Z,5.10
2023-02-28T14:44:25.090Z,5.10
2023-02-28T14:47:06.438Z,5.10
2023-02-28T14:49:44.875Z,5.00
2023-02-28T14:52:22.051Z,5.00
2023-02-28T14:54:56.543Z,5.00
2023-02-28T14:57:34.432Z,4.90
2023-02-28T15:00:23.101Z,4.80
2023-02-28T15:02:57.265Z,4.80
2023-02-28T15:05:34.086Z,4.80
2023-02-28T15:08:15.244Z,4.80
2023-02-28T15:11:13.884Z,4.70
2023-02-28T15:13:57.338Z,4.60
2023-02-28T15:16:42.819Z,6.60
2023-02-28T15:19:23.981Z,4.60
2023-02-28T15:22:05.863Z,4.50
2023-02-28T15:24:51.691Z,4.50
2023-02-28T15:27:26.758Z,6.10
2023-02-28T15:30:01.623Z,4.20
2023-02-28T15:32:37.392Z,4.20
2023-02-28T15:35:29.610Z,4.10
2023-02-28T15:38:02.776Z,4.00
2023-02-28T15:40:43.452Z,4.00
2023-02-28T15:43:19.194Z,3.90
2023-02-28T15:45:59.238Z,3.90
2023-02-28T15:48:35.139Z,3.80
2023-02-28T15:51:10.592Z,3.70
2023-02-28T15:54:00.418Z,3.60
2023-02-28T15:56:34.770Z,3.60
2023-02-28T15:59:08.576Z,3.50
2023-02-28T16:01:40.594Z,3.40
2023-02-28T16:04:18.113Z,3.40
2023-02-28T16:06:59.041Z,3.30
2023-02-28T16:09:34.291Z,3.20
2023-02-28T16:12:07.033Z,3.10
2023-02-28T16:14:39.634Z,3.10
2023-02-28T16:17:26.464Z,3.00
2023-02-28T16:19:58.899Z,2.90
2023-02-28T16:22:30.618Z,2.90
2023-02-28T16:25:05.163Z,2.80
2023-02-28T16:27:38.986Z,2.80
2023-02-28T16:30:29.303Z,2.80
2023-02-28T16:33:01.228Z,2.70
2023-02-28T16:35:32.994Z,2.60
2023-02-28T16:38:04.805Z,2.60
2023-02-28T16:40:37.615Z,2.60
2023-02-28T16:43:16.326Z,3.50
2023-02-28T16:45:48.483Z,2.50
2023-02-28T16:48:20.254Z,2.50
2023-02-28T16:50:52.567Z,2.40
2023-02-28T16:53:24.286Z,2.40
2023-02-28T16:55:56.019Z,2.30
2023-02-28T16:58:28.441Z,2.30
2023-02-28T17:01:00.219Z,2.30
2023-02-28T17:03:33.791Z,2.30
2023-02-28T17:06:06.834Z,2.30
2023-02-28T17:08:39.513Z,2.30
2023-02-28T17:11:11.263Z,2.20
2023-02-28T17:13:43.150Z,2.30
2023-02-28T17:16:22.902Z,2.50
2023-02-28T17:18:58.322Z,2.20
2023-02-28T17:21:31.108Z,2.20
2023-02-28T17:24:02.932Z,2.20
2023-02-28T17:26:34.995Z,2.20
2023-02-28T17:29:17.951Z,2.20
2023-02-28T17:31:49.761Z,2.20
2023-02-28T17:34:22.449Z,2.10
2023-02-28T17:36:54.490Z,2.10
2023-02-28T17:39:26.715Z,2.10
2023-02-28T17:41:58.520Z,2.10
2023-02-28T17:44:30.326Z,2.10
2023-02-28T17:47:02.191Z,0.80
2023-02-28T17:49:34.272Z,2.00
2023-02-28T17:52:06.051Z,2.00
2023-02-28T17:54:38.003Z,2.00
2023-02-28T17:57:15.348Z,2.00
2023-02-28T17:59:47.263Z,2.00
2023-02-28T18:02:19.022Z,2.00
2023-02-28T18:04:50.734Z,2.00
2023-02-28T18:07:24.674Z,2.00
2023-02-28T18:09:57.036Z,1.90
2023-02-28T18:12:28.872Z,1.90
2023-02-28T18:15:00.678Z,1.90
2023-02-28T18:17:32.426Z,1.90
2023-02-28T18:20:05.615Z,1.90
2023-02-28T18:22:38.618Z,1.90
2023-02-28T18:25:14.644Z,1.80
2023-02-28T18:27:58.599Z,1.80
2023-02-28T18:30:35.678Z,1.70
2023-02-28T18:33:07.403Z,1.70
2023-02-28T18:35:39.815Z,1.70
2023-02-28T18:38:15.280Z,1.60
2023-02-28T18:40:59.340Z,1.60
2023-02-28T18:43:33.170Z,1.50
2023-02-28T18:46:13.126Z,1.50
2023-02-28T18:48:45.607Z,1.40
2023-02-28T18:51:23.760Z,1.40
2023-02-28T18:53:56.044Z,1.40
2023-02-28T18:56:27.912Z,1.30
2023-02-28T18:58:59.759Z,1.30
2023-02-28T19:01:32.482Z,1.30
2023-02-28T19:04:04.886Z,1.20
2023-02-28T19:06:38.084Z,1.20
2023-02-28T19:09:10.176Z,1.10
2023-02-28T19:11:41.980Z,1.10
2023-02-28T19:14:13.740Z,1.10
2023-02-28T19:16:47.133Z,1.00
2023-02-28T19:19:18.902Z,1.00
2023-02-28T19:21:50.601Z,1.00
2023-02-28T19:24:22.334Z,0.90
2023-02-28T19:26:54.037Z,0.90
2023-02-28T19:29:25.745Z,0.90
2023-02-28T19:31:57.584Z,0.90
2023-02-28T19:34:29.575Z,0.90
2023-02-28T19:37:01.465Z,0.80
2023-02-28T19:39:40.979Z,0.90
2023-02-28T19:42:15.585Z,0.80
2023-02-28T19:44:47.315Z,0.80
2023-02-28T19:47:19.164Z,0.80
2023-02-28T19:49:54.449Z,0.80
2023-02-28T19:52:26.326Z,0.80
2023-02-28T19:54:58.074Z,0.80
2023-02-28T19:57:29.818Z,0.70
2023-02-28T20:00:01.698Z,0.70
2023-02-28T20:02:33.449Z,0.70
2023-02-28T20:05:05.637Z,0.70
2023-02-28T20:07:37.571Z,0.60
2023-02-28T20:10:10.212Z,0.60
2023-02-28T20:12:41.978Z,0.60
2023-02-28T20:15:13.833Z,0.60
2023-02-28T20:17:46.682Z,0.50
2023-02-28T20:20:19.682Z,0.50
2023-02-28T20:22:51.437Z,0.40
2023-02-28T20:25:23.188Z,0.40
2023-02-28T20:27:54.915Z,0.40
2023-02-28T20:30:26.700Z,0.40
2023-02-28T20:32:58.471Z,0.40
2023-02-28T20:35:30.269Z,0.40
2023-02-28T20:38:02.075Z,0.40
2023-02-28T20:40:33.847Z,0.40
2023-02-28T20:43:05.650Z,0.30
2023-02-28T20:45:37.528Z,0.30
2023-02-28T20:48:09.240Z,0.30
2023-02-28T20:50:40.965Z,0.20
2023-02-28T20:53:12.736Z,0.30
2023-02-28T20:55:55.550Z,0.30
2023-02-28T20:58:30.348Z,0.30
2023-02-28T21:01:03.801Z,0.30
2023-02-28T21:03:36.106Z,0.30
2023-02-28T21:06:08.114Z,0.30
2023-02-28T21:08:40.392Z,0.30
2023-02-28T21:11:17.719Z,0.30
2023-02-28T21:13:51.531Z,0.30
2023-02-28T21:16:25.619Z,0.30
2023-02-28T21:19:03.889Z,0.20
2023-02-28T21:21:39.412Z,0.20
2023-02-28T21:24:16.674Z,0.20
2023-02-28T21:26:48.597Z,0.20
2023-02-28T21:29:20.462Z,0.20
2023-02-28T21:31:53.011Z,0.20
2023-02-28T21:34:26.917Z,0.30
2023-02-28T21:36:58.660Z,0.30
2023-02-28T21:39:30.697Z,0.30
2023-02-28T21:42:04.069Z,0.30
2023-02-28T21:44:36.074Z,0.30
2023-02-28T21:47:07.883Z,0.30
2023-02-28T21:49:39.620Z,0.30
2023-02-28T21:52:11.361Z,0.30
2023-02-28T21:54:43.184Z,0.30
2023-02-28T21:57:16.039Z,0.30
2023-02-28T21:59:47.954Z,0.30
2023-02-28T22:02:20.121Z,0.30
2023-02-28T22:04:52.683Z,0.30
2023-02-28T22:07:24.403Z,0.30
2023-02-28T22:09:56.248Z,0.30
2023-02-28T22:12:30.508Z,0.30
2023-02-28T22:15:02.323Z,0.30
2023-02-28T22:17:34.111Z,0.30
2023-02-28T22:20:06.321Z,0.30
2023-02-28T22:22:38.331Z,0.30
2023-02-28T22:25:10.385Z,0.30
2023-02-28T22:27:42.133Z,0.30
2023-02-28T22:30:14.664Z,0.30
2023-02-28T22:32:46.526Z,0.30
2023-02-28T22:35:19.456Z,0.30
2023-02-28T22:37:51.419Z,0.30
2023-02-28T22:40:23.147Z,0.40
2023-02-28T22:42:54.904Z,0.40
2023-02-28T22:45:27.230Z,0.40
2023-02-28T22:47:58.977Z,0.40
2023-02-28T22:50:31.136Z,0.40
2023-02-28T22:53:02.930Z,0.40
2023-02-28T22:55:34.790Z,0.40
2023-02-28T22:58:06.563Z,0.40
2023-02-28T23:00:38.515Z,0.50
2023-02-28T23:03:10.304Z,0.50
2023-02-28T23:05:42.174Z,0.50
2023-02-28T23:08:13.918Z,0.50
2023-02-28T23:10:45.636Z,0.50
2023-02-28T23:13:18.741Z,0.50
2023-02-28T23:15:50.697Z,0.50
2023-02-28T23:18:22.539Z,0.40
2023-02-28T23:20:57.518Z,0.50
2023-02-28T23:23:29.312Z,0.40
2023-02-28T23:26:01.089Z,0.40
2023-02-28T23:28:32.870Z,0.40
2023-02-28T23:31:04.752Z,0.50
2023-02-28T23:33:36.877Z,0.40
2023-02-28T23:36:14.376Z,0.40
2023-02-28T23:38:48.597Z,0.40
2023-02-28T23:41:22.234Z,0.40
2023-02-28T23:43:54.313Z,0.40
2023-02-28T23:46:27.048Z,0.40
2023-02-28T23:48:59.436Z,0.40
2023-02-28T23:51:31.153Z,0.30
2023-02-28T23:54:03.096Z,0.30
2023-02-28T23:56:34.857Z,0.30
2023-02-28T23:59:06.712Z,0.30
